Startpagina
METAR-TAF:

METAR-TAF

Vliegvelden :

Mountain Home Air Force Base

Mountain Home, Idaho, Verenigde Staten

breedte: 43-03N, lengte: 115-52W, hoogte: 913 m

Actueel weer

Dit bericht is 22 minuten geleden gemaakt, om 17:58 UTC
Wind 11 kt uit het oostzuidoosten
Temperatuur 1°C
Vochtigheid 75%
Druk 1028 hPa
Zicht: 16.1 km
Onbewolkt

METAR: KMUO 181758Z AUTO 11011KT 10SM CLR 01/M03 A3035 RMK AO2 SLP304 T00121035 10012 21082 50003 $

Tijdstip: 11:20 (18:20 UTC)

Verwachting

Dit bericht is 11 minuten geleden gemaakt, om 18:09 UTC
Verwachting geldig van 16 om 18 UTC tot 17 om 24 UTC
Wind 9 kt uit het noordwesten
Zicht 10 km of meer
Verspreide wolken op 9000 ft
Wijzigt naar
van 16 om 23 UTC tot 16 om 24 UTC
Wind 9 kt uit het noordwesten
Zicht: 1910 m
Gebroken wolken op 7000 ft

TAF: KMUO 161809Z 1618/1724 31009KT 9999 SCT090 QNH3014INS BECMG 1623/1624 31009KT 9999 BKN070 QNH3006INS TX10/1623Z TNM05/1713Z LAST NO AMDS AFT 1701 NEXT 1910

Waarnemingen en weersverwachtingen van meer dan 4000 vliegvelden (METAR en TAF).

De beschikbare stations zijn de gele en rode punten op de kaart.

Ga met uw muis naar het station om de naam te zien.

Klik dan om waarnemingen en weersverwachtingen te zien.

kaart wijzigen: klik op de groene knoppen met een zwart kruis om in te zoomen, op de groene knop met een streepje om uit te zoomen of op de groene pijlen voor aangrenzende kaarten.


METAR-TAF: